sensor_id;sensor_type;location;lat;lon;timestamp;P1;durP1;ratioP1;P2;durP2;ratioP2
17449;SDS011;8842;51.244;7.102;2023-04-29T00:01:35;12.60;;;11.90;;
17449;SDS011;8842;51.244;7.102;2023-04-29T00:06:39;12.30;;;11.60;;
17449;SDS011;8842;51.244;7.102;2023-04-29T00:11:43;12.43;;;11.77;;
17449;SDS011;8842;51.244;7.102;2023-04-29T00:16:55;11.87;;;11.27;;
17449;SDS011;8842;51.244;7.102;2023-04-29T00:27:11;11.90;;;11.30;;
17449;SDS011;8842;51.244;7.102;2023-04-29T00:32:15;11.73;;;11.13;;
17449;SDS011;8842;51.244;7.102;2023-04-29T00:37:29;11.30;;;10.70;;
17449;SDS011;8842;51.244;7.102;2023-04-29T00:42:33;11.90;;;11.00;;
17449;SDS011;8842;51.244;7.102;2023-04-29T00:47:38;12.53;;;11.70;;
17449;SDS011;8842;51.244;7.102;2023-04-29T00:52:42;12.90;;;11.83;;
17449;SDS011;8842;51.244;7.102;2023-04-29T00:57:53;12.60;;;11.80;;
17449;SDS011;8842;51.244;7.102;2023-04-29T01:02:57;12.33;;;11.53;;
17449;SDS011;8842;51.244;7.102;2023-04-29T01:08:27;12.27;;;11.50;;
17449;SDS011;8842;51.244;7.102;2023-04-29T01:13:34;12.67;;;11.87;;
17449;SDS011;8842;51.244;7.102;2023-04-29T01:18:45;12.23;;;11.57;;
17449;SDS011;8842;51.244;7.102;2023-04-29T01:23:56;13.47;;;12.63;;
17449;SDS011;8842;51.244;7.102;2023-04-29T01:29:01;13.07;;;12.27;;
17449;SDS011;8842;51.244;7.102;2023-04-29T01:34:17;12.70;;;12.00;;
17449;SDS011;8842;51.244;7.102;2023-04-29T01:39:24;13.73;;;12.70;;
17449;SDS011;8842;51.244;7.102;2023-04-29T01:49:41;13.30;;;12.30;;
17449;SDS011;8842;51.244;7.102;2023-04-29T01:54:47;12.70;;;12.00;;
17449;SDS011;8842;51.244;7.102;2023-04-29T01:59:59;13.57;;;12.27;;
17449;SDS011;8842;51.244;7.102;2023-04-29T02:05:04;13.80;;;12.90;;
17449;SDS011;8842;51.244;7.102;2023-04-29T02:10:09;12.87;;;12.03;;
17449;SDS011;8842;51.244;7.102;2023-04-29T02:15:13;13.10;;;12.10;;
17449;SDS011;8842;51.244;7.102;2023-04-29T02:20:19;18.37;;;13.40;;
17449;SDS011;8842;51.244;7.102;2023-04-29T02:25:30;13.13;;;12.13;;
17449;SDS011;8842;51.244;7.102;2023-04-29T02:30:34;13.23;;;12.20;;
17449;SDS011;8842;51.244;7.102;2023-04-29T02:35:46;12.23;;;11.53;;
17449;SDS011;8842;51.244;7.102;2023-04-29T02:40:50;12.27;;;11.63;;
17449;SDS011;8842;51.244;7.102;2023-04-29T02:46:02;13.27;;;12.27;;
17449;SDS011;8842;51.244;7.102;2023-04-29T02:51:07;13.47;;;12.67;;
17449;SDS011;8842;51.244;7.102;2023-04-29T02:56:11;13.43;;;12.73;;
17449;SDS011;8842;51.244;7.102;2023-04-29T03:01:23;12.20;;;11.47;;
17449;SDS011;8842;51.244;7.102;2023-04-29T03:06:27;13.27;;;12.47;;
17449;SDS011;8842;51.244;7.102;2023-04-29T03:11:41;13.43;;;12.33;;
17449;SDS011;8842;51.244;7.102;2023-04-29T03:16:45;13.57;;;12.73;;
17449;SDS011;8842;51.244;7.102;2023-04-29T03:21:59;12.57;;;11.87;;
17449;SDS011;8842;51.244;7.102;2023-04-29T03:27:03;12.87;;;12.10;;
17449;SDS011;8842;51.244;7.102;2023-04-29T03:32:10;12.17;;;11.57;;
17449;SDS011;8842;51.244;7.102;2023-04-29T03:37:22;12.53;;;11.73;;
17449;SDS011;8842;51.244;7.102;2023-04-29T03:42:26;12.20;;;11.50;;
17449;SDS011;8842;51.244;7.102;2023-04-29T03:47:40;13.10;;;11.63;;
17449;SDS011;8842;51.244;7.102;2023-04-29T03:52:45;12.87;;;11.93;;
17449;SDS011;8842;51.244;7.102;2023-04-29T03:57:49;12.70;;;12.00;;
17449;SDS011;8842;51.244;7.102;2023-04-29T04:03:00;12.90;;;12.10;;
17449;SDS011;8842;51.244;7.102;2023-04-29T04:08:05;13.23;;;12.50;;
17449;SDS011;8842;51.244;7.102;2023-04-29T04:13:16;12.57;;;11.77;;
17449;SDS011;8842;51.244;7.102;2023-04-29T04:18:20;13.77;;;12.80;;
17449;SDS011;8842;51.244;7.102;2023-04-29T04:23:32;12.83;;;12.10;;
17449;SDS011;8842;51.244;7.102;2023-04-29T04:28:36;12.40;;;11.70;;
17449;SDS011;8842;51.244;7.102;2023-04-29T04:33:51;12.40;;;11.80;;
17449;SDS011;8842;51.244;7.102;2023-04-29T04:38:55;12.90;;;12.20;;
17449;SDS011;8842;51.244;7.102;2023-04-29T04:44:09;13.37;;;12.67;;
17449;SDS011;8842;51.244;7.102;2023-04-29T04:49:14;13.43;;;12.53;;
17449;SDS011;8842;51.244;7.102;2023-04-29T04:54:26;12.60;;;11.90;;
17449;SDS011;8842;51.244;7.102;2023-04-29T04:59:30;13.70;;;12.50;;
17449;SDS011;8842;51.244;7.102;2023-04-29T05:04:42;13.00;;;12.30;;
17449;SDS011;8842;51.244;7.102;2023-04-29T05:09:46;13.13;;;12.43;;
17449;SDS011;8842;51.244;7.102;2023-04-29T05:14:52;13.07;;;12.37;;
17449;SDS011;8842;51.244;7.102;2023-04-29T05:19:56;13.60;;;12.90;;
17449;SDS011;8842;51.244;7.102;2023-04-29T05:25:00;13.57;;;12.87;;
17449;SDS011;8842;51.244;7.102;2023-04-29T05:30:12;13.83;;;13.13;;
17449;SDS011;8842;51.244;7.102;2023-04-29T05:35:16;13.50;;;12.80;;
17449;SDS011;8842;51.244;7.102;2023-04-29T05:40:20;14.20;;;13.40;;
17449;SDS011;8842;51.244;7.102;2023-04-29T05:45:24;13.70;;;12.90;;
17449;SDS011;8842;51.244;7.102;2023-04-29T05:50:28;13.80;;;13.10;;
17449;SDS011;8842;51.244;7.102;2023-04-29T05:55:32;13.40;;;12.70;;
17449;SDS011;8842;51.244;7.102;2023-04-29T06:00:37;13.83;;;13.13;;
17449;SDS011;8842;51.244;7.102;2023-04-29T06:05:52;14.07;;;13.37;;
17449;SDS011;8842;51.244;7.102;2023-04-29T06:10:56;14.20;;;13.40;;
17449;SDS011;8842;51.244;7.102;2023-04-29T06:16:00;14.30;;;13.50;;
17449;SDS011;8842;51.244;7.102;2023-04-29T06:21:04;14.23;;;13.43;;
17449;SDS011;8842;51.244;7.102;2023-04-29T06:26:08;13.70;;;13.00;;
17449;SDS011;8842;51.244;7.102;2023-04-29T06:31:12;13.77;;;13.07;;
17449;SDS011;8842;51.244;7.102;2023-04-29T06:36:16;14.00;;;13.20;;
17449;SDS011;8842;51.244;7.102;2023-04-29T06:41:20;13.60;;;12.90;;
17449;SDS011;8842;51.244;7.102;2023-04-29T06:46:25;15.10;;;14.20;;
17449;SDS011;8842;51.244;7.102;2023-04-29T06:51:36;14.90;;;13.53;;
17449;SDS011;8842;51.244;7.102;2023-04-29T06:56:40;14.20;;;13.40;;
17449;SDS011;8842;51.244;7.102;2023-04-29T07:01:52;14.20;;;13.40;;
17449;SDS011;8842;51.244;7.102;2023-04-29T07:06:56;13.50;;;12.80;;
17449;SDS011;8842;51.244;7.102;2023-04-29T07:12:08;14.17;;;13.17;;
17449;SDS011;8842;51.244;7.102;2023-04-29T07:22:23;14.53;;;13.63;;
17449;SDS011;8842;51.244;7.102;2023-04-29T07:27:27;13.67;;;12.97;;
17449;SDS011;8842;51.244;7.102;2023-04-29T07:32:31;14.17;;;13.37;;
17449;SDS011;8842;51.244;7.102;2023-04-29T07:37:43;14.40;;;13.67;;
17449;SDS011;8842;51.244;7.102;2023-04-29T07:42:47;14.40;;;13.60;;
17449;SDS011;8842;51.244;7.102;2023-04-29T07:47:51;14.60;;;13.60;;
17449;SDS011;8842;51.244;7.102;2023-04-29T07:53:12;13.80;;;13.00;;
17449;SDS011;8842;51.244;7.102;2023-04-29T07:58:17;13.77;;;13.07;;
17449;SDS011;8842;51.244;7.102;2023-04-29T08:03:21;14.30;;;13.40;;
17449;SDS011;8842;51.244;7.102;2023-04-29T08:08:25;13.73;;;13.03;;
17449;SDS011;8842;51.244;7.102;2023-04-29T08:13:29;13.80;;;12.93;;
17449;SDS011;8842;51.244;7.102;2023-04-29T08:18:43;13.80;;;13.00;;
17449;SDS011;8842;51.244;7.102;2023-04-29T08:23:47;13.93;;;13.23;;
17449;SDS011;8842;51.244;7.102;2023-04-29T08:28:58;12.90;;;12.20;;
17449;SDS011;8842;51.244;7.102;2023-04-29T08:34:02;13.13;;;12.30;;
17449;SDS011;8842;51.244;7.102;2023-04-29T08:39:06;13.07;;;12.37;;
17449;SDS011;8842;51.244;7.102;2023-04-29T08:44:11;14.27;;;13.50;;
17449;SDS011;8842;51.244;7.102;2023-04-29T08:49:15;13.60;;;12.90;;
17449;SDS011;8842;51.244;7.102;2023-04-29T08:54:20;13.70;;;13.00;;
17449;SDS011;8842;51.244;7.102;2023-04-29T08:59:24;13.20;;;12.50;;
17449;SDS011;8842;51.244;7.102;2023-04-29T09:04:30;13.40;;;12.70;;
17449;SDS011;8842;51.244;7.102;2023-04-29T09:09:44;13.67;;;12.90;;
17449;SDS011;8842;51.244;7.102;2023-04-29T09:14:49;13.43;;;12.73;;
17449;SDS011;8842;51.244;7.102;2023-04-29T09:19:53;13.87;;;13.17;;
17449;SDS011;8842;51.244;7.102;2023-04-29T09:25:13;13.30;;;12.60;;
17449;SDS011;8842;51.244;7.102;2023-04-29T09:30:17;13.50;;;12.80;;
17449;SDS011;8842;51.244;7.102;2023-04-29T09:35:23;14.17;;;13.37;;
17449;SDS011;8842;51.244;7.102;2023-04-29T09:40:29;14.03;;;13.23;;
17449;SDS011;8842;51.244;7.102;2023-04-29T09:45:34;14.93;;;14.07;;
17449;SDS011;8842;51.244;7.102;2023-04-29T09:50:40;14.23;;;13.20;;
17449;SDS011;8842;51.244;7.102;2023-04-29T09:55:57;15.00;;;13.93;;
17449;SDS011;8842;51.244;7.102;2023-04-29T10:01:09;13.73;;;12.93;;
17449;SDS011;8842;51.244;7.102;2023-04-29T10:06:15;12.87;;;12.17;;
17449;SDS011;8842;51.244;7.102;2023-04-29T10:11:27;13.50;;;12.80;;
17449;SDS011;8842;51.244;7.102;2023-04-29T10:16:33;13.10;;;12.40;;
17449;SDS011;8842;51.244;7.102;2023-04-29T10:21:49;13.80;;;12.70;;
17449;SDS011;8842;51.244;7.102;2023-04-29T10:26:55;13.70;;;13.00;;
17449;SDS011;8842;51.244;7.102;2023-04-29T10:32:08;14.23;;;13.43;;
17449;SDS011;8842;51.244;7.102;2023-04-29T10:37:12;14.43;;;13.63;;
17449;SDS011;8842;51.244;7.102;2023-04-29T10:42:30;13.50;;;12.80;;
17449;SDS011;8842;51.244;7.102;2023-04-29T10:47:38;13.47;;;12.57;;
17449;SDS011;8842;51.244;7.102;2023-04-29T10:52:51;13.40;;;12.60;;
17449;SDS011;8842;51.244;7.102;2023-04-29T10:58:05;13.83;;;13.03;;
17449;SDS011;8842;51.244;7.102;2023-04-29T11:03:16;13.70;;;12.87;;
17449;SDS011;8842;51.244;7.102;2023-04-29T11:08:32;13.70;;;13.00;;
17449;SDS011;8842;51.244;7.102;2023-04-29T11:13:41;13.30;;;12.60;;
17449;SDS011;8842;51.244;7.102;2023-04-29T11:19:04;13.60;;;12.90;;
17449;SDS011;8842;51.244;7.102;2023-04-29T11:24:17;14.07;;;13.27;;
17449;SDS011;8842;51.244;7.102;2023-04-29T11:29:22;13.73;;;13.03;;
17449;SDS011;8842;51.244;7.102;2023-04-29T11:34:28;12.43;;;11.73;;
17449;SDS011;8842;51.244;7.102;2023-04-29T11:39:33;14.13;;;13.23;;
17449;SDS011;8842;51.244;7.102;2023-04-29T11:44:37;22.53;;;12.70;;
17449;SDS011;8842;51.244;7.102;2023-04-29T11:49:50;12.90;;;12.20;;
17449;SDS011;8842;51.244;7.102;2023-04-29T11:54:54;12.80;;;12.00;;
17449;SDS011;8842;51.244;7.102;2023-04-29T12:00:08;11.93;;;11.33;;
17449;SDS011;8842;51.244;7.102;2023-04-29T12:05:14;14.73;;;13.37;;
17449;SDS011;8842;51.244;7.102;2023-04-29T12:10:18;13.73;;;12.93;;
17449;SDS011;8842;51.244;7.102;2023-04-29T12:15:23;13.37;;;12.67;;
17449;SDS011;8842;51.244;7.102;2023-04-29T12:20:34;13.47;;;12.77;;
17449;SDS011;8842;51.244;7.102;2023-04-29T12:25:40;13.60;;;12.50;;
17449;SDS011;8842;51.244;7.102;2023-04-29T12:30:47;13.77;;;12.87;;
17449;SDS011;8842;51.244;7.102;2023-04-29T12:35:59;13.97;;;13.17;;
17449;SDS011;8842;51.244;7.102;2023-04-29T12:41:03;13.80;;;12.90;;
17449;SDS011;8842;51.244;7.102;2023-04-29T12:46:15;14.17;;;13.37;;
17449;SDS011;8842;51.244;7.102;2023-04-29T12:51:19;14.13;;;13.20;;
17449;SDS011;8842;51.244;7.102;2023-04-29T12:56:23;13.57;;;12.87;;
17449;SDS011;8842;51.244;7.102;2023-04-29T13:01:28;13.93;;;13.20;;
17449;SDS011;8842;51.244;7.102;2023-04-29T13:11:36;14.00;;;13.10;;
17449;SDS011;8842;51.244;7.102;2023-04-29T13:16:40;12.77;;;12.07;;
17449;SDS011;8842;51.244;7.102;2023-04-29T13:21:44;13.30;;;12.60;;
17449;SDS011;8842;51.244;7.102;2023-04-29T13:26:56;13.10;;;12.40;;
17449;SDS011;8842;51.244;7.102;2023-04-29T13:32:00;13.07;;;12.07;;
17449;SDS011;8842;51.244;7.102;2023-04-29T13:37:11;12.97;;;11.97;;
17449;SDS011;8842;51.244;7.102;2023-04-29T13:42:15;12.53;;;11.73;;
17449;SDS011;8842;51.244;7.102;2023-04-29T13:47:19;12.40;;;11.67;;
17449;SDS011;8842;51.244;7.102;2023-04-29T13:52:24;11.77;;;11.07;;
17449;SDS011;8842;51.244;7.102;2023-04-29T13:57:28;11.17;;;10.57;;
17449;SDS011;8842;51.244;7.102;2023-04-29T14:02:32;11.93;;;11.33;;
17449;SDS011;8842;51.244;7.102;2023-04-29T14:07:44;12.10;;;11.40;;
17449;SDS011;8842;51.244;7.102;2023-04-29T14:12:48;12.00;;;11.30;;
17449;SDS011;8842;51.244;7.102;2023-04-29T14:18:00;12.33;;;11.43;;
17449;SDS011;8842;51.244;7.102;2023-04-29T14:23:04;11.53;;;10.70;;
17449;SDS011;8842;51.244;7.102;2023-04-29T14:28:16;11.83;;;11.17;;
17449;SDS011;8842;51.244;7.102;2023-04-29T14:33:20;10.60;;;10.10;;
17449;SDS011;8842;51.244;7.102;2023-04-29T14:38:24;10.90;;;10.30;;
17449;SDS011;8842;51.244;7.102;2023-04-29T14:43:28;11.23;;;10.60;;
17449;SDS011;8842;51.244;7.102;2023-04-29T14:48:32;11.40;;;10.80;;
17449;SDS011;8842;51.244;7.102;2023-04-29T14:53:36;10.90;;;10.30;;
17449;SDS011;8842;51.244;7.102;2023-04-29T14:58:48;11.30;;;10.50;;
17449;SDS011;8842;51.244;7.102;2023-04-29T15:03:52;11.60;;;10.93;;
17449;SDS011;8842;51.244;7.102;2023-04-29T15:09:04;11.37;;;10.67;;
17449;SDS011;8842;51.244;7.102;2023-04-29T15:14:08;11.17;;;10.57;;
17449;SDS011;8842;51.244;7.102;2023-04-29T15:19:20;11.43;;;10.73;;
17449;SDS011;8842;51.244;7.102;2023-04-29T15:24:26;10.90;;;10.30;;
17449;SDS011;8842;51.244;7.102;2023-04-29T15:29:37;11.40;;;10.70;;
17449;SDS011;8842;51.244;7.102;2023-04-29T15:34:43;9.87;;;9.33;;
17449;SDS011;8842;51.244;7.102;2023-04-29T15:39:57;9.90;;;9.40;;
17449;SDS011;8842;51.244;7.102;2023-04-29T15:45:02;10.60;;;10.00;;
17449;SDS011;8842;51.244;7.102;2023-04-29T15:55:19;11.40;;;10.80;;
17449;SDS011;8842;51.244;7.102;2023-04-29T16:00:24;11.00;;;10.40;;
17449;SDS011;8842;51.244;7.102;2023-04-29T16:05:28;12.30;;;11.50;;
17449;SDS011;8842;51.244;7.102;2023-04-29T16:10:33;11.60;;;10.90;;
17449;SDS011;8842;51.244;7.102;2023-04-29T16:15:46;11.37;;;10.67;;
17449;SDS011;8842;51.244;7.102;2023-04-29T16:20:50;10.73;;;10.13;;
17449;SDS011;8842;51.244;7.102;2023-04-29T16:26:03;11.00;;;10.40;;
17449;SDS011;8842;51.244;7.102;2023-04-29T16:36:22;11.10;;;10.40;;
17449;SDS011;8842;51.244;7.102;2023-04-29T16:41:26;10.90;;;10.30;;
17449;SDS011;8842;51.244;7.102;2023-04-29T16:46:31;10.20;;;9.70;;
17449;SDS011;8842;51.244;7.102;2023-04-29T16:51:35;10.60;;;10.00;;
17449;SDS011;8842;51.244;7.102;2023-04-29T16:56:39;9.30;;;8.67;;
17449;SDS011;8842;51.244;7.102;2023-04-29T17:01:43;9.37;;;8.87;;
17449;SDS011;8842;51.244;7.102;2023-04-29T17:06:58;9.90;;;9.40;;
17449;SDS011;8842;51.244;7.102;2023-04-29T17:12:03;11.13;;;10.53;;
17449;SDS011;8842;51.244;7.102;2023-04-29T17:17:15;11.30;;;10.70;;
17449;SDS011;8842;51.244;7.102;2023-04-29T17:22:19;10.40;;;9.90;;
17449;SDS011;8842;51.244;7.102;2023-04-29T17:27:23;11.13;;;10.53;;
17449;SDS011;8842;51.244;7.102;2023-04-29T17:32:28;11.43;;;10.83;;
17449;SDS011;8842;51.244;7.102;2023-04-29T17:37:32;11.57;;;10.87;;
17449;SDS011;8842;51.244;7.102;2023-04-29T17:42:43;11.40;;;10.80;;
17449;SDS011;8842;51.244;7.102;2023-04-29T17:47:47;11.60;;;11.00;;
17449;SDS011;8842;51.244;7.102;2023-04-29T17:53:02;12.20;;;11.50;;
17449;SDS011;8842;51.244;7.102;2023-04-29T17:58:06;12.20;;;11.30;;
17449;SDS011;8842;51.244;7.102;2023-04-29T18:03:10;11.70;;;11.10;;
17449;SDS011;8842;51.244;7.102;2023-04-29T18:08:14;11.50;;;10.90;;
17449;SDS011;8842;51.244;7.102;2023-04-29T18:13:26;11.40;;;10.80;;
17449;SDS011;8842;51.244;7.102;2023-04-29T18:18:30;11.50;;;10.90;;
17449;SDS011;8842;51.244;7.102;2023-04-29T18:23:42;12.10;;;11.40;;
17449;SDS011;8842;51.244;7.102;2023-04-29T18:28:46;11.67;;;10.97;;
17449;SDS011;8842;51.244;7.102;2023-04-29T18:33:51;11.47;;;10.87;;
17449;SDS011;8842;51.244;7.102;2023-04-29T18:39:03;11.60;;;11.00;;
17449;SDS011;8842;51.244;7.102;2023-04-29T18:49:17;10.93;;;10.33;;
17449;SDS011;8842;51.244;7.102;2023-04-29T18:54:22;11.00;;;10.40;;
17449;SDS011;8842;51.244;7.102;2023-04-29T18:59:26;11.80;;;11.10;;
17449;SDS011;8842;51.244;7.102;2023-04-29T19:04:31;11.80;;;11.10;;
17449;SDS011;8842;51.244;7.102;2023-04-29T19:09:43;11.67;;;10.87;;
17449;SDS011;8842;51.244;7.102;2023-04-29T19:14:47;12.17;;;11.17;;
17449;SDS011;8842;51.244;7.102;2023-04-29T19:19:58;11.70;;;11.00;;
17449;SDS011;8842;51.244;7.102;2023-04-29T19:25:03;11.50;;;10.83;;
17449;SDS011;8842;51.244;7.102;2023-04-29T19:30:18;11.40;;;10.80;;
17449;SDS011;8842;51.244;7.102;2023-04-29T19:35:22;11.00;;;10.40;;
17449;SDS011;8842;51.244;7.102;2023-04-29T19:40:26;11.13;;;10.53;;
17449;SDS011;8842;51.244;7.102;2023-04-29T19:45:30;11.10;;;10.50;;
17449;SDS011;8842;51.244;7.102;2023-04-29T19:50:42;11.00;;;10.40;;
17449;SDS011;8842;51.244;7.102;2023-04-29T19:55:46;10.73;;;10.13;;
17449;SDS011;8842;51.244;7.102;2023-04-29T20:01:00;10.70;;;10.10;;
17449;SDS011;8842;51.244;7.102;2023-04-29T20:06:04;10.77;;;10.13;;
17449;SDS011;8842;51.244;7.102;2023-04-29T20:11:16;10.87;;;10.27;;
17449;SDS011;8842;51.244;7.102;2023-04-29T20:16:20;11.37;;;10.77;;
17449;SDS011;8842;51.244;7.102;2023-04-29T20:21:34;10.70;;;10.10;;
17449;SDS011;8842;51.244;7.102;2023-04-29T20:26:39;10.60;;;10.00;;
17449;SDS011;8842;51.244;7.102;2023-04-29T20:31:53;10.30;;;9.70;;
17449;SDS011;8842;51.244;7.102;2023-04-29T20:36:57;10.10;;;9.60;;
17449;SDS011;8842;51.244;7.102;2023-04-29T20:42:01;10.80;;;10.20;;
17449;SDS011;8842;51.244;7.102;2023-04-29T20:47:15;10.50;;;10.00;;
17449;SDS011;8842;51.244;7.102;2023-04-29T20:52:19;10.80;;;9.90;;
17449;SDS011;8842;51.244;7.102;2023-04-29T20:57:23;11.17;;;10.27;;
17449;SDS011;8842;51.244;7.102;2023-04-29T21:02:28;10.00;;;9.50;;
17449;SDS011;8842;51.244;7.102;2023-04-29T21:07:39;10.77;;;10.17;;
17449;SDS011;8842;51.244;7.102;2023-04-29T21:12:43;10.57;;;10.00;;
17449;SDS011;8842;51.244;7.102;2023-04-29T21:17:55;10.40;;;9.80;;
17449;SDS011;8842;51.244;7.102;2023-04-29T21:22:59;10.53;;;10.00;;
17449;SDS011;8842;51.244;7.102;2023-04-29T21:28:10;11.07;;;10.40;;
17449;SDS011;8842;51.244;7.102;2023-04-29T21:33:14;10.70;;;10.10;;
17449;SDS011;8842;51.244;7.102;2023-04-29T21:38:29;10.57;;;9.97;;
17449;SDS011;8842;51.244;7.102;2023-04-29T21:43:33;10.20;;;9.70;;
17449;SDS011;8842;51.244;7.102;2023-04-29T21:48:44;10.83;;;10.23;;
17449;SDS011;8842;51.244;7.102;2023-04-29T21:53:49;10.80;;;10.10;;
17449;SDS011;8842;51.244;7.102;2023-04-29T21:59:01;10.77;;;10.23;;
17449;SDS011;8842;51.244;7.102;2023-04-29T22:04:05;10.30;;;9.80;;
17449;SDS011;8842;51.244;7.102;2023-04-29T22:09:19;10.73;;;10.13;;
17449;SDS011;8842;51.244;7.102;2023-04-29T22:14:24;10.30;;;9.80;;
17449;SDS011;8842;51.244;7.102;2023-04-29T22:19:28;10.17;;;9.67;;
17449;SDS011;8842;51.244;7.102;2023-04-29T22:29:43;11.27;;;10.27;;
17449;SDS011;8842;51.244;7.102;2023-04-29T22:34:47;10.30;;;9.80;;
17449;SDS011;8842;51.244;7.102;2023-04-29T22:39:59;10.50;;;9.90;;
17449;SDS011;8842;51.244;7.102;2023-04-29T22:45:04;10.60;;;10.00;;
17449;SDS011;8842;51.244;7.102;2023-04-29T22:50:19;10.60;;;10.00;;
17449;SDS011;8842;51.244;7.102;2023-04-29T22:55:23;10.43;;;9.93;;
17449;SDS011;8842;51.244;7.102;2023-04-29T23:00:27;10.40;;;9.90;;
17449;SDS011;8842;51.244;7.102;2023-04-29T23:05:31;10.53;;;9.93;;
17449;SDS011;8842;51.244;7.102;2023-04-29T23:10:35;10.67;;;10.07;;
17449;SDS011;8842;51.244;7.102;2023-04-29T23:15:47;11.03;;;10.43;;
17449;SDS011;8842;51.244;7.102;2023-04-29T23:20:51;10.80;;;10.20;;
17449;SDS011;8842;51.244;7.102;2023-04-29T23:25:55;10.80;;;10.20;;
17449;SDS011;8842;51.244;7.102;2023-04-29T23:31:06;10.80;;;10.20;;
17449;SDS011;8842;51.244;7.102;2023-04-29T23:36:10;10.73;;;10.03;;
17449;SDS011;8842;51.244;7.102;2023-04-29T23:41:24;10.60;;;10.00;;
17449;SDS011;8842;51.244;7.102;2023-04-29T23:46:28;10.57;;;10.07;;
17449;SDS011;8842;51.244;7.102;2023-04-29T23:51:32;12.37;;;11.53;;
17449;SDS011;8842;51.244;7.102;2023-04-29T23:56:36;10.70;;;10.10;;
